sensor_id;sensor_type;location;lat;lon;timestamp;temperature;humidity
25342;DHT22;13298;48.792;9.154;2024-03-22T00:02:02;8.40;99.90
25342;DHT22;13298;48.792;9.154;2024-03-22T00:04:27;8.30;99.90
25342;DHT22;13298;48.792;9.154;2024-03-22T00:06:53;8.30;99.90
25342;DHT22;13298;48.792;9.154;2024-03-22T00:09:19;8.30;99.90
25342;DHT22;13298;48.792;9.154;2024-03-22T00:11:45;8.20;99.90
25342;DHT22;13298;48.792;9.154;2024-03-22T00:14:11;8.20;99.90
25342;DHT22;13298;48.792;9.154;2024-03-22T00:16:37;8.20;99.90
25342;DHT22;13298;48.792;9.154;2024-03-22T00:19:03;8.20;99.90
25342;DHT22;13298;48.792;9.154;2024-03-22T00:21:29;8.20;99.90
25342;DHT22;13298;48.792;9.154;2024-03-22T00:23:56;8.10;99.90
25342;DHT22;13298;48.792;9.154;2024-03-22T00:26:22;8.10;99.90
25342;DHT22;13298;48.792;9.154;2024-03-22T00:28:47;8.10;99.90
25342;DHT22;13298;48.792;9.154;2024-03-22T00:31:14;8.00;99.90
25342;DHT22;13298;48.792;9.154;2024-03-22T00:33:40;8.00;99.90
25342;DHT22;13298;48.792;9.154;2024-03-22T00:36:06;8.00;99.90
25342;DHT22;13298;48.792;9.154;2024-03-22T00:38:32;8.00;99.90
25342;DHT22;13298;48.792;9.154;2024-03-22T00:40:58;7.90;99.90
25342;DHT22;13298;48.792;9.154;2024-03-22T00:43:24;7.90;99.90
25342;DHT22;13298;48.792;9.154;2024-03-22T00:45:49;7.90;99.90
25342;DHT22;13298;48.792;9.154;2024-03-22T00:48:15;7.80;99.90
25342;DHT22;13298;48.792;9.154;2024-03-22T00:50:41;7.70;99.90
25342;DHT22;13298;48.792;9.154;2024-03-22T00:53:07;7.70;99.90
25342;DHT22;13298;48.792;9.154;2024-03-22T00:55:33;7.70;99.90
25342;DHT22;13298;48.792;9.154;2024-03-22T00:57:59;7.60;99.90
25342;DHT22;13298;48.792;9.154;2024-03-22T01:00:25;7.70;99.90
25342;DHT22;13298;48.792;9.154;2024-03-22T01:02:51;7.60;99.90
25342;DHT22;13298;48.792;9.154;2024-03-22T01:05:17;7.60;99.90
25342;DHT22;13298;48.792;9.154;2024-03-22T01:07:43;7.60;99.90
25342;DHT22;13298;48.792;9.154;2024-03-22T01:10:10;7.60;99.90
25342;DHT22;13298;48.792;9.154;2024-03-22T01:12:36;7.60;99.90
25342;DHT22;13298;48.792;9.154;2024-03-22T01:15:03;7.60;99.90
25342;DHT22;13298;48.792;9.154;2024-03-22T01:17:29;7.60;99.90
25342;DHT22;13298;48.792;9.154;2024-03-22T01:19:55;7.50;99.90
25342;DHT22;13298;48.792;9.154;2024-03-22T01:22:21;7.50;99.90
25342;DHT22;13298;48.792;9.154;2024-03-22T01:24:46;7.50;99.90
25342;DHT22;13298;48.792;9.154;2024-03-22T01:27:13;7.50;99.90
25342;DHT22;13298;48.792;9.154;2024-03-22T01:29:38;7.50;99.90
25342;DHT22;13298;48.792;9.154;2024-03-22T01:32:04;7.50;99.90
25342;DHT22;13298;48.792;9.154;2024-03-22T01:34:30;7.40;99.90
25342;DHT22;13298;48.792;9.154;2024-03-22T01:36:56;7.40;99.90
25342;DHT22;13298;48.792;9.154;2024-03-22T01:39:22;7.30;99.90
25342;DHT22;13298;48.792;9.154;2024-03-22T01:41:51;7.30;99.90
25342;DHT22;13298;48.792;9.154;2024-03-22T01:44:17;7.20;99.90
25342;DHT22;13298;48.792;9.154;2024-03-22T01:46:43;7.20;99.90
25342;DHT22;13298;48.792;9.154;2024-03-22T01:49:11;7.20;99.90
25342;DHT22;13298;48.792;9.154;2024-03-22T01:51:40;7.10;99.90
25342;DHT22;13298;48.792;9.154;2024-03-22T01:54:09;7.10;99.90
25342;DHT22;13298;48.792;9.154;2024-03-22T01:56:37;7.10;99.90
25342;DHT22;13298;48.792;9.154;2024-03-22T01:59:04;7.10;99.90
25342;DHT22;13298;48.792;9.154;2024-03-22T02:01:31;7.10;99.90
25342;DHT22;13298;48.792;9.154;2024-03-22T02:03:57;7.10;99.90
25342;DHT22;13298;48.792;9.154;2024-03-22T02:06:23;7.00;99.90
25342;DHT22;13298;48.792;9.154;2024-03-22T02:08:49;7.00;99.90
25342;DHT22;13298;48.792;9.154;2024-03-22T02:11:14;7.10;99.90
25342;DHT22;13298;48.792;9.154;2024-03-22T02:13:40;7.00;99.90
25342;DHT22;13298;48.792;9.154;2024-03-22T02:16:06;7.00;99.90
25342;DHT22;13298;48.792;9.154;2024-03-22T02:18:32;7.00;99.90
25342;DHT22;13298;48.792;9.154;2024-03-22T02:20:57;6.90;99.90
25342;DHT22;13298;48.792;9.154;2024-03-22T02:23:34;6.90;99.90
25342;DHT22;13298;48.792;9.154;2024-03-22T02:26:00;6.90;99.90
25342;DHT22;13298;48.792;9.154;2024-03-22T02:28:27;6.80;99.90
25342;DHT22;13298;48.792;9.154;2024-03-22T02:30:52;6.80;99.90
25342;DHT22;13298;48.792;9.154;2024-03-22T02:33:18;6.80;99.90
25342;DHT22;13298;48.792;9.154;2024-03-22T02:35:46;6.80;99.90
25342;DHT22;13298;48.792;9.154;2024-03-22T02:38:12;6.80;99.90
25342;DHT22;13298;48.792;9.154;2024-03-22T02:40:38;6.70;99.90
25342;DHT22;13298;48.792;9.154;2024-03-22T02:43:03;6.70;99.90
25342;DHT22;13298;48.792;9.154;2024-03-22T02:45:30;6.70;99.90
25342;DHT22;13298;48.792;9.154;2024-03-22T02:47:56;6.70;99.90
25342;DHT22;13298;48.792;9.154;2024-03-22T02:50:22;6.70;99.90
25342;DHT22;13298;48.792;9.154;2024-03-22T02:52:51;6.70;99.90
25342;DHT22;13298;48.792;9.154;2024-03-22T02:55:16;6.70;99.90
25342;DHT22;13298;48.792;9.154;2024-03-22T02:57:42;6.70;99.90
25342;DHT22;13298;48.792;9.154;2024-03-22T03:00:08;6.70;99.90
25342;DHT22;13298;48.792;9.154;2024-03-22T03:02:34;6.70;99.90
25342;DHT22;13298;48.792;9.154;2024-03-22T03:05:00;6.80;99.90
25342;DHT22;13298;48.792;9.154;2024-03-22T03:07:26;6.90;99.90
25342;DHT22;13298;48.792;9.154;2024-03-22T03:09:53;6.90;99.90
25342;DHT22;13298;48.792;9.154;2024-03-22T03:12:19;7.00;99.90
25342;DHT22;13298;48.792;9.154;2024-03-22T03:14:44;7.00;99.90
25342;DHT22;13298;48.792;9.154;2024-03-22T03:17:10;7.10;99.90
25342;DHT22;13298;48.792;9.154;2024-03-22T03:19:36;7.10;99.90
25342;DHT22;13298;48.792;9.154;2024-03-22T03:22:02;7.20;99.90
25342;DHT22;13298;48.792;9.154;2024-03-22T03:24:28;7.20;99.90
25342;DHT22;13298;48.792;9.154;2024-03-22T03:26:53;7.20;99.90
25342;DHT22;13298;48.792;9.154;2024-03-22T03:29:19;7.20;99.90
25342;DHT22;13298;48.792;9.154;2024-03-22T03:31:45;7.20;99.90
25342;DHT22;13298;48.792;9.154;2024-03-22T03:34:11;7.30;99.90
25342;DHT22;13298;48.792;9.154;2024-03-22T03:36:36;7.20;99.90
25342;DHT22;13298;48.792;9.154;2024-03-22T03:39:02;7.20;99.90
25342;DHT22;13298;48.792;9.154;2024-03-22T03:41:29;7.20;99.90
25342;DHT22;13298;48.792;9.154;2024-03-22T03:43:55;7.10;99.90
25342;DHT22;13298;48.792;9.154;2024-03-22T03:46:21;7.10;99.90
25342;DHT22;13298;48.792;9.154;2024-03-22T03:48:46;7.10;99.90
25342;DHT22;13298;48.792;9.154;2024-03-22T03:51:12;7.20;99.90
25342;DHT22;13298;48.792;9.154;2024-03-22T03:53:38;7.30;99.90
25342;DHT22;13298;48.792;9.154;2024-03-22T03:56:03;7.30;99.90
25342;DHT22;13298;48.792;9.154;2024-03-22T03:58:29;7.30;99.90
25342;DHT22;13298;48.792;9.154;2024-03-22T04:00:55;7.40;99.90
25342;DHT22;13298;48.792;9.154;2024-03-22T04:03:20;7.40;99.90
25342;DHT22;13298;48.792;9.154;2024-03-22T04:05:46;7.40;99.90
25342;DHT22;13298;48.792;9.154;2024-03-22T04:08:12;7.50;99.90
25342;DHT22;13298;48.792;9.154;2024-03-22T04:10:37;7.50;99.90
25342;DHT22;13298;48.792;9.154;2024-03-22T04:13:03;7.50;99.90
25342;DHT22;13298;48.792;9.154;2024-03-22T04:15:29;7.60;99.90
25342;DHT22;13298;48.792;9.154;2024-03-22T04:17:59;7.60;99.90
25342;DHT22;13298;48.792;9.154;2024-03-22T04:20:25;7.70;99.90
25342;DHT22;13298;48.792;9.154;2024-03-22T04:22:50;7.70;99.90
25342;DHT22;13298;48.792;9.154;2024-03-22T04:25:17;7.80;99.90
25342;DHT22;13298;48.792;9.154;2024-03-22T04:27:43;7.80;99.90
25342;DHT22;13298;48.792;9.154;2024-03-22T04:30:09;7.90;99.90
25342;DHT22;13298;48.792;9.154;2024-03-22T04:32:36;8.00;99.90
25342;DHT22;13298;48.792;9.154;2024-03-22T04:35:02;8.10;99.90
25342;DHT22;13298;48.792;9.154;2024-03-22T04:37:28;8.30;99.90
25342;DHT22;13298;48.792;9.154;2024-03-22T04:39:54;8.30;99.90
25342;DHT22;13298;48.792;9.154;2024-03-22T04:42:20;8.40;99.90
25342;DHT22;13298;48.792;9.154;2024-03-22T04:44:45;8.60;99.90
25342;DHT22;13298;48.792;9.154;2024-03-22T04:47:11;8.60;99.90
25342;DHT22;13298;48.792;9.154;2024-03-22T04:49:37;8.60;99.90
25342;DHT22;13298;48.792;9.154;2024-03-22T04:52:03;8.70;99.90
25342;DHT22;13298;48.792;9.154;2024-03-22T04:54:28;8.70;99.90
25342;DHT22;13298;48.792;9.154;2024-03-22T04:56:54;8.70;99.90
25342;DHT22;13298;48.792;9.154;2024-03-22T04:59:20;8.70;99.90
25342;DHT22;13298;48.792;9.154;2024-03-22T05:01:45;8.70;99.90
25342;DHT22;13298;48.792;9.154;2024-03-22T05:04:11;8.80;99.90
25342;DHT22;13298;48.792;9.154;2024-03-22T05:06:37;8.80;99.90
25342;DHT22;13298;48.792;9.154;2024-03-22T05:09:03;8.80;99.90
25342;DHT22;13298;48.792;9.154;2024-03-22T05:11:29;8.80;99.90
25342;DHT22;13298;48.792;9.154;2024-03-22T05:13:55;8.80;99.90
25342;DHT22;13298;48.792;9.154;2024-03-22T05:16:21;8.80;99.90
25342;DHT22;13298;48.792;9.154;2024-03-22T05:18:49;8.80;99.90
25342;DHT22;13298;48.792;9.154;2024-03-22T05:21:14;8.90;99.90
25342;DHT22;13298;48.792;9.154;2024-03-22T05:23:40;8.80;99.90
25342;DHT22;13298;48.792;9.154;2024-03-22T05:26:06;8.80;99.90
25342;DHT22;13298;48.792;9.154;2024-03-22T05:28:31;8.80;99.90
25342;DHT22;13298;48.792;9.154;2024-03-22T05:30:57;8.80;99.90
25342;DHT22;13298;48.792;9.154;2024-03-22T05:33:23;8.90;99.90
25342;DHT22;13298;48.792;9.154;2024-03-22T05:35:55;8.90;99.90
25342;DHT22;13298;48.792;9.154;2024-03-22T05:38:24;9.00;99.90
25342;DHT22;13298;48.792;9.154;2024-03-22T05:40:50;9.00;99.90
25342;DHT22;13298;48.792;9.154;2024-03-22T05:43:16;9.10;99.90
25342;DHT22;13298;48.792;9.154;2024-03-22T05:45:41;9.10;99.90
25342;DHT22;13298;48.792;9.154;2024-03-22T05:48:07;9.20;99.90
25342;DHT22;13298;48.792;9.154;2024-03-22T05:50:33;9.20;99.90
25342;DHT22;13298;48.792;9.154;2024-03-22T05:52:58;9.20;99.90
25342;DHT22;13298;48.792;9.154;2024-03-22T05:55:24;9.20;99.90
25342;DHT22;13298;48.792;9.154;2024-03-22T05:57:52;9.20;99.90
25342;DHT22;13298;48.792;9.154;2024-03-22T06:00:18;9.20;99.90
25342;DHT22;13298;48.792;9.154;2024-03-22T06:02:44;9.20;99.90
25342;DHT22;13298;48.792;9.154;2024-03-22T06:05:09;9.20;99.90
25342;DHT22;13298;48.792;9.154;2024-03-22T06:07:35;9.20;99.90
25342;DHT22;13298;48.792;9.154;2024-03-22T06:10:08;9.20;99.90
25342;DHT22;13298;48.792;9.154;2024-03-22T06:12:35;9.10;99.90
25342;DHT22;13298;48.792;9.154;2024-03-22T06:15:01;9.10;99.90
25342;DHT22;13298;48.792;9.154;2024-03-22T06:17:32;9.10;99.90
25342;DHT22;13298;48.792;9.154;2024-03-22T06:19:59;9.10;99.90
25342;DHT22;13298;48.792;9.154;2024-03-22T06:22:25;9.00;99.90
25342;DHT22;13298;48.792;9.154;2024-03-22T06:24:51;9.00;99.90
25342;DHT22;13298;48.792;9.154;2024-03-22T06:27:17;9.00;99.90
25342;DHT22;13298;48.792;9.154;2024-03-22T06:29:43;9.00;99.90
25342;DHT22;13298;48.792;9.154;2024-03-22T06:32:09;9.00;99.90
25342;DHT22;13298;48.792;9.154;2024-03-22T06:34:34;9.20;99.90
25342;DHT22;13298;48.792;9.154;2024-03-22T06:37:00;9.20;99.90
25342;DHT22;13298;48.792;9.154;2024-03-22T06:39:26;9.30;99.90
25342;DHT22;13298;48.792;9.154;2024-03-22T06:41:51;9.40;99.90
25342;DHT22;13298;48.792;9.154;2024-03-22T06:44:17;9.50;99.90
25342;DHT22;13298;48.792;9.154;2024-03-22T06:46:43;9.60;99.90
25342;DHT22;13298;48.792;9.154;2024-03-22T06:49:08;9.60;99.90
25342;DHT22;13298;48.792;9.154;2024-03-22T06:51:34;9.70;99.90
25342;DHT22;13298;48.792;9.154;2024-03-22T06:54:00;9.70;99.90
25342;DHT22;13298;48.792;9.154;2024-03-22T06:56:25;9.80;99.90
25342;DHT22;13298;48.792;9.154;2024-03-22T06:58:51;9.80;99.90
25342;DHT22;13298;48.792;9.154;2024-03-22T07:01:17;9.80;99.90
25342;DHT22;13298;48.792;9.154;2024-03-22T07:03:42;9.80;99.90
25342;DHT22;13298;48.792;9.154;2024-03-22T07:06:11;9.90;99.90
25342;DHT22;13298;48.792;9.154;2024-03-22T07:08:36;9.90;99.90
25342;DHT22;13298;48.792;9.154;2024-03-22T07:11:05;9.90;99.90
25342;DHT22;13298;48.792;9.154;2024-03-22T07:13:32;9.90;99.90
25342;DHT22;13298;48.792;9.154;2024-03-22T07:15:57;10.00;99.90
25342;DHT22;13298;48.792;9.154;2024-03-22T07:18:23;10.10;99.90
25342;DHT22;13298;48.792;9.154;2024-03-22T07:20:49;10.10;99.90
25342;DHT22;13298;48.792;9.154;2024-03-22T07:23:14;10.20;99.90
25342;DHT22;13298;48.792;9.154;2024-03-22T07:25:40;10.30;99.90
25342;DHT22;13298;48.792;9.154;2024-03-22T07:28:08;10.40;99.90
25342;DHT22;13298;48.792;9.154;2024-03-22T07:30:33;10.40;99.90
25342;DHT22;13298;48.792;9.154;2024-03-22T07:33:00;10.40;99.90
25342;DHT22;13298;48.792;9.154;2024-03-22T07:35:26;10.50;99.90
25342;DHT22;13298;48.792;9.154;2024-03-22T07:37:52;10.50;99.90
25342;DHT22;13298;48.792;9.154;2024-03-22T07:40:18;10.50;99.90
25342;DHT22;13298;48.792;9.154;2024-03-22T07:42:45;10.60;99.90
25342;DHT22;13298;48.792;9.154;2024-03-22T07:45:11;10.70;99.90
25342;DHT22;13298;48.792;9.154;2024-03-22T07:47:36;10.70;99.90
25342;DHT22;13298;48.792;9.154;2024-03-22T07:50:03;10.80;99.90
25342;DHT22;13298;48.792;9.154;2024-03-22T07:52:28;10.90;99.90
25342;DHT22;13298;48.792;9.154;2024-03-22T07:54:54;11.00;99.90
25342;DHT22;13298;48.792;9.154;2024-03-22T07:57:20;11.10;99.90
25342;DHT22;13298;48.792;9.154;2024-03-22T07:59:46;11.30;99.90
25342;DHT22;13298;48.792;9.154;2024-03-22T08:02:12;11.40;99.90
25342;DHT22;13298;48.792;9.154;2024-03-22T08:04:38;11.60;99.90
25342;DHT22;13298;48.792;9.154;2024-03-22T08:07:04;11.80;99.90
25342;DHT22;13298;48.792;9.154;2024-03-22T08:09:29;12.00;99.90
25342;DHT22;13298;48.792;9.154;2024-03-22T08:11:55;12.20;99.90
25342;DHT22;13298;48.792;9.154;2024-03-22T08:14:21;12.40;99.90
25342;DHT22;13298;48.792;9.154;2024-03-22T08:16:46;12.70;99.90
25342;DHT22;13298;48.792;9.154;2024-03-22T08:19:12;12.90;99.90
25342;DHT22;13298;48.792;9.154;2024-03-22T08:21:38;13.20;99.90
25342;DHT22;13298;48.792;9.154;2024-03-22T08:24:05;13.40;99.90
25342;DHT22;13298;48.792;9.154;2024-03-22T08:26:30;13.70;99.90
25342;DHT22;13298;48.792;9.154;2024-03-22T08:28:56;14.00;99.90
25342;DHT22;13298;48.792;9.154;2024-03-22T08:31:22;14.30;99.90
25342;DHT22;13298;48.792;9.154;2024-03-22T08:33:51;14.50;99.90
25342;DHT22;13298;48.792;9.154;2024-03-22T08:36:17;14.80;99.90
25342;DHT22;13298;48.792;9.154;2024-03-22T08:38:43;15.10;99.90
25342;DHT22;13298;48.792;9.154;2024-03-22T08:41:08;15.20;99.90
25342;DHT22;13298;48.792;9.154;2024-03-22T08:43:34;15.30;99.90
25342;DHT22;13298;48.792;9.154;2024-03-22T08:46:00;15.40;99.90
25342;DHT22;13298;48.792;9.154;2024-03-22T08:48:25;15.40;99.90
25342;DHT22;13298;48.792;9.154;2024-03-22T08:50:51;15.50;99.90
25342;DHT22;13298;48.792;9.154;2024-03-22T08:53:17;15.50;99.90
25342;DHT22;13298;48.792;9.154;2024-03-22T08:55:47;15.50;99.90
25342;DHT22;13298;48.792;9.154;2024-03-22T08:58:13;15.40;99.90
25342;DHT22;13298;48.792;9.154;2024-03-22T09:00:41;15.40;99.90
25342;DHT22;13298;48.792;9.154;2024-03-22T09:03:07;15.40;99.90
25342;DHT22;13298;48.792;9.154;2024-03-22T09:05:33;15.40;99.90
25342;DHT22;13298;48.792;9.154;2024-03-22T09:07:59;15.40;99.90
25342;DHT22;13298;48.792;9.154;2024-03-22T09:10:25;15.50;99.90
25342;DHT22;13298;48.792;9.154;2024-03-22T09:12:51;15.50;99.90
25342;DHT22;13298;48.792;9.154;2024-03-22T09:15:17;15.60;99.90
25342;DHT22;13298;48.792;9.154;2024-03-22T09:17:43;15.70;99.90
25342;DHT22;13298;48.792;9.154;2024-03-22T09:20:09;15.70;99.90
25342;DHT22;13298;48.792;9.154;2024-03-22T09:22:36;15.80;99.90
25342;DHT22;13298;48.792;9.154;2024-03-22T09:25:01;15.80;99.90
25342;DHT22;13298;48.792;9.154;2024-03-22T09:27:27;15.80;99.90
25342;DHT22;13298;48.792;9.154;2024-03-22T09:29:53;15.90;99.90
25342;DHT22;13298;48.792;9.154;2024-03-22T09:32:18;16.00;99.90
25342;DHT22;13298;48.792;9.154;2024-03-22T09:34:44;16.10;99.90
25342;DHT22;13298;48.792;9.154;2024-03-22T09:37:10;16.20;99.90
25342;DHT22;13298;48.792;9.154;2024-03-22T09:39:36;16.30;99.90
25342;DHT22;13298;48.792;9.154;2024-03-22T09:42:06;16.50;99.90
25342;DHT22;13298;48.792;9.154;2024-03-22T09:44:32;16.70;99.90
25342;DHT22;13298;48.792;9.154;2024-03-22T09:47:00;16.90;99.90
25342;DHT22;13298;48.792;9.154;2024-03-22T09:49:25;17.00;99.90
25342;DHT22;13298;48.792;9.154;2024-03-22T09:51:52;17.20;99.90
25342;DHT22;13298;48.792;9.154;2024-03-22T09:54:18;17.30;99.90
25342;DHT22;13298;48.792;9.154;2024-03-22T09:56:46;17.40;99.90
25342;DHT22;13298;48.792;9.154;2024-03-22T09:59:13;17.60;99.90
25342;DHT22;13298;48.792;9.154;2024-03-22T10:01:40;17.90;99.90
25342;DHT22;13298;48.792;9.154;2024-03-22T10:04:06;18.10;99.10
25342;DHT22;13298;48.792;9.154;2024-03-22T10:06:35;18.40;98.90
25342;DHT22;13298;48.792;9.154;2024-03-22T10:09:01;18.60;99.10
25342;DHT22;13298;48.792;9.154;2024-03-22T10:11:27;18.80;98.80
25342;DHT22;13298;48.792;9.154;2024-03-22T10:13:53;18.90;98.10
25342;DHT22;13298;48.792;9.154;2024-03-22T10:16:23;18.70;97.50
25342;DHT22;13298;48.792;9.154;2024-03-22T10:18:49;18.60;97.80
25342;DHT22;13298;48.792;9.154;2024-03-22T10:21:18;18.50;97.60
25342;DHT22;13298;48.792;9.154;2024-03-22T10:23:44;18.30;97.90
25342;DHT22;13298;48.792;9.154;2024-03-22T10:26:13;18.30;97.60
25342;DHT22;13298;48.792;9.154;2024-03-22T10:28:46;18.00;97.10
25342;DHT22;13298;48.792;9.154;2024-03-22T10:31:14;17.90;98.40
25342;DHT22;13298;48.792;9.154;2024-03-22T10:33:40;17.90;98.50
25342;DHT22;13298;48.792;9.154;2024-03-22T10:36:07;17.90;98.50
25342;DHT22;13298;48.792;9.154;2024-03-22T10:38:36;18.00;98.10
25342;DHT22;13298;48.792;9.154;2024-03-22T10:41:04;18.00;97.90
25342;DHT22;13298;48.792;9.154;2024-03-22T10:43:30;18.00;98.40
25342;DHT22;13298;48.792;9.154;2024-03-22T10:46:01;17.90;98.50
25342;DHT22;13298;48.792;9.154;2024-03-22T10:48:30;17.90;98.10
25342;DHT22;13298;48.792;9.154;2024-03-22T10:51:00;17.80;98.60
25342;DHT22;13298;48.792;9.154;2024-03-22T10:53:26;17.70;98.70
25342;DHT22;13298;48.792;9.154;2024-03-22T10:55:56;17.80;98.10
25342;DHT22;13298;48.792;9.154;2024-03-22T10:58:25;17.70;98.50
25342;DHT22;13298;48.792;9.154;2024-03-22T11:00:52;17.70;99.10
25342;DHT22;13298;48.792;9.154;2024-03-22T11:03:22;17.80;98.40
25342;DHT22;13298;48.792;9.154;2024-03-22T11:05:54;17.80;98.00
25342;DHT22;13298;48.792;9.154;2024-03-22T11:08:24;17.80;98.30
25342;DHT22;13298;48.792;9.154;2024-03-22T11:10:51;18.00;98.80
25342;DHT22;13298;48.792;9.154;2024-03-22T11:13:17;18.10;97.90
25342;DHT22;13298;48.792;9.154;2024-03-22T11:15:43;18.10;97.50
25342;DHT22;13298;48.792;9.154;2024-03-22T11:18:09;18.20;98.00
25342;DHT22;13298;48.792;9.154;2024-03-22T11:20:38;18.20;97.80
25342;DHT22;13298;48.792;9.154;2024-03-22T11:23:04;18.20;97.10
25342;DHT22;13298;48.792;9.154;2024-03-22T11:25:33;18.20;97.70
25342;DHT22;13298;48.792;9.154;2024-03-22T11:27:59;18.30;97.90
25342;DHT22;13298;48.792;9.154;2024-03-22T11:30:32;18.40;97.60
25342;DHT22;13298;48.792;9.154;2024-03-22T11:33:02;18.50;97.50
25342;DHT22;13298;48.792;9.154;2024-03-22T11:35:28;18.60;96.40
25342;DHT22;13298;48.792;9.154;2024-03-22T11:37:54;18.70;96.30
25342;DHT22;13298;48.792;9.154;2024-03-22T11:40:22;18.80;96.60
25342;DHT22;13298;48.792;9.154;2024-03-22T11:42:51;19.00;96.50
25342;DHT22;13298;48.792;9.154;2024-03-22T11:45:18;19.20;96.20
25342;DHT22;13298;48.792;9.154;2024-03-22T11:47:45;19.40;94.90
25342;DHT22;13298;48.792;9.154;2024-03-22T11:50:12;19.50;94.80
25342;DHT22;13298;48.792;9.154;2024-03-22T11:52:41;19.50;94.70
25342;DHT22;13298;48.792;9.154;2024-03-22T11:55:08;19.60;94.40
25342;DHT22;13298;48.792;9.154;2024-03-22T11:57:34;19.70;94.50
25342;DHT22;13298;48.792;9.154;2024-03-22T12:00:00;19.70;93.80
25342;DHT22;13298;48.792;9.154;2024-03-22T12:02:26;19.70;93.80
25342;DHT22;13298;48.792;9.154;2024-03-22T12:04:52;20.00;94.30
25342;DHT22;13298;48.792;9.154;2024-03-22T12:07:18;20.20;93.50
25342;DHT22;13298;48.792;9.154;2024-03-22T12:09:44;20.40;92.40
25342;DHT22;13298;48.792;9.154;2024-03-22T12:12:12;20.50;91.50
25342;DHT22;13298;48.792;9.154;2024-03-22T12:14:40;20.60;91.20
25342;DHT22;13298;48.792;9.154;2024-03-22T12:17:07;20.60;90.60
25342;DHT22;13298;48.792;9.154;2024-03-22T12:19:33;20.60;90.10
25342;DHT22;13298;48.792;9.154;2024-03-22T12:21:59;20.70;90.40
25342;DHT22;13298;48.792;9.154;2024-03-22T12:24:26;20.80;90.60
25342;DHT22;13298;48.792;9.154;2024-03-22T12:26:54;20.90;92.20
25342;DHT22;13298;48.792;9.154;2024-03-22T12:29:20;20.90;91.70
25342;DHT22;13298;48.792;9.154;2024-03-22T12:31:46;21.00;91.40
25342;DHT22;13298;48.792;9.154;2024-03-22T12:34:12;21.10;90.60
25342;DHT22;13298;48.792;9.154;2024-03-22T12:36:38;21.00;90.90
25342;DHT22;13298;48.792;9.154;2024-03-22T12:39:04;21.20;90.30
25342;DHT22;13298;48.792;9.154;2024-03-22T12:41:30;21.10;85.20
25342;DHT22;13298;48.792;9.154;2024-03-22T12:43:57;21.00;85.50
25342;DHT22;13298;48.792;9.154;2024-03-22T12:46:22;21.10;86.50
25342;DHT22;13298;48.792;9.154;2024-03-22T12:48:49;21.20;86.80
25342;DHT22;13298;48.792;9.154;2024-03-22T12:51:15;21.40;84.90
25342;DHT22;13298;48.792;9.154;2024-03-22T12:53:41;21.40;84.60
25342;DHT22;13298;48.792;9.154;2024-03-22T12:56:07;21.30;83.50
25342;DHT22;13298;48.792;9.154;2024-03-22T12:58:33;21.20;85.20
25342;DHT22;13298;48.792;9.154;2024-03-22T13:00:59;21.20;85.10
25342;DHT22;13298;48.792;9.154;2024-03-22T13:03:26;21.20;84.90
25342;DHT22;13298;48.792;9.154;2024-03-22T13:05:53;21.20;86.30
25342;DHT22;13298;48.792;9.154;2024-03-22T13:08:19;21.20;84.70
25342;DHT22;13298;48.792;9.154;2024-03-22T13:10:46;21.20;83.00
25342;DHT22;13298;48.792;9.154;2024-03-22T13:13:12;21.10;82.70
25342;DHT22;13298;48.792;9.154;2024-03-22T13:15:40;20.90;82.20
25342;DHT22;13298;48.792;9.154;2024-03-22T13:18:07;20.90;83.70
25342;DHT22;13298;48.792;9.154;2024-03-22T13:20:34;20.90;85.20
25342;DHT22;13298;48.792;9.154;2024-03-22T13:23:00;21.00;84.80
25342;DHT22;13298;48.792;9.154;2024-03-22T13:25:26;21.10;84.90
25342;DHT22;13298;48.792;9.154;2024-03-22T13:27:52;21.10;87.50
25342;DHT22;13298;48.792;9.154;2024-03-22T13:30:18;21.20;86.70
25342;DHT22;13298;48.792;9.154;2024-03-22T13:32:44;21.40;85.50
25342;DHT22;13298;48.792;9.154;2024-03-22T13:35:10;21.50;85.50
25342;DHT22;13298;48.792;9.154;2024-03-22T13:37:36;21.50;83.90
25342;DHT22;13298;48.792;9.154;2024-03-22T13:40:02;21.60;82.90
25342;DHT22;13298;48.792;9.154;2024-03-22T13:42:28;21.50;85.80
25342;DHT22;13298;48.792;9.154;2024-03-22T13:44:53;21.30;84.80
25342;DHT22;13298;48.792;9.154;2024-03-22T13:47:22;21.10;84.50
25342;DHT22;13298;48.792;9.154;2024-03-22T13:49:47;21.00;85.90
25342;DHT22;13298;48.792;9.154;2024-03-22T13:52:13;20.80;86.60
25342;DHT22;13298;48.792;9.154;2024-03-22T13:54:40;20.80;87.90
25342;DHT22;13298;48.792;9.154;2024-03-22T13:57:05;20.70;89.30
25342;DHT22;13298;48.792;9.154;2024-03-22T13:59:31;20.50;87.00
25342;DHT22;13298;48.792;9.154;2024-03-22T14:01:57;20.30;88.00
25342;DHT22;13298;48.792;9.154;2024-03-22T14:04:23;20.30;88.20
25342;DHT22;13298;48.792;9.154;2024-03-22T14:06:51;20.30;87.70
25342;DHT22;13298;48.792;9.154;2024-03-22T14:09:17;20.20;88.10
25342;DHT22;13298;48.792;9.154;2024-03-22T14:11:43;20.20;89.00
25342;DHT22;13298;48.792;9.154;2024-03-22T14:14:09;20.10;88.20
25342;DHT22;13298;48.792;9.154;2024-03-22T14:16:39;20.00;89.00
25342;DHT22;13298;48.792;9.154;2024-03-22T14:19:05;19.80;90.20
25342;DHT22;13298;48.792;9.154;2024-03-22T14:21:31;19.60;90.90
25342;DHT22;13298;48.792;9.154;2024-03-22T14:23:56;19.40;91.00
25342;DHT22;13298;48.792;9.154;2024-03-22T14:26:22;19.20;91.40
25342;DHT22;13298;48.792;9.154;2024-03-22T14:28:49;19.00;90.90
25342;DHT22;13298;48.792;9.154;2024-03-22T14:31:15;19.00;91.40
25342;DHT22;13298;48.792;9.154;2024-03-22T14:33:41;18.80;90.40
25342;DHT22;13298;48.792;9.154;2024-03-22T14:36:08;18.80;89.20
25342;DHT22;13298;48.792;9.154;2024-03-22T14:38:35;18.70;88.60
25342;DHT22;13298;48.792;9.154;2024-03-22T14:41:01;18.60;89.30
25342;DHT22;13298;48.792;9.154;2024-03-22T14:43:28;18.60;89.70
25342;DHT22;13298;48.792;9.154;2024-03-22T14:45:54;18.70;88.50
25342;DHT22;13298;48.792;9.154;2024-03-22T14:48:21;18.90;87.80
25342;DHT22;13298;48.792;9.154;2024-03-22T14:50:48;19.00;87.00
25342;DHT22;13298;48.792;9.154;2024-03-22T14:53:14;19.00;87.20
25342;DHT22;13298;48.792;9.154;2024-03-22T14:55:54;19.00;86.60
25342;DHT22;13298;48.792;9.154;2024-03-22T14:58:26;18.90;84.90
25342;DHT22;13298;48.792;9.154;2024-03-22T15:00:56;18.80;85.20
25342;DHT22;13298;48.792;9.154;2024-03-22T15:03:24;18.80;86.20
25342;DHT22;13298;48.792;9.154;2024-03-22T15:05:53;18.80;86.50
25342;DHT22;13298;48.792;9.154;2024-03-22T15:08:21;18.80;85.90
25342;DHT22;13298;48.792;9.154;2024-03-22T15:10:47;18.70;85.20
25342;DHT22;13298;48.792;9.154;2024-03-22T15:13:14;18.70;84.60
25342;DHT22;13298;48.792;9.154;2024-03-22T15:15:41;18.60;86.30
25342;DHT22;13298;48.792;9.154;2024-03-22T15:18:07;18.60;87.30
25342;DHT22;13298;48.792;9.154;2024-03-22T15:20:34;18.50;87.10
25342;DHT22;13298;48.792;9.154;2024-03-22T15:23:02;18.50;87.80
25342;DHT22;13298;48.792;9.154;2024-03-22T15:25:29;18.40;86.80
25342;DHT22;13298;48.792;9.154;2024-03-22T15:27:55;18.30;86.30
25342;DHT22;13298;48.792;9.154;2024-03-22T15:30:20;18.20;86.50
25342;DHT22;13298;48.792;9.154;2024-03-22T15:32:47;18.10;86.90